Terminal Aerodrome Forecast
Issued by NWS

Home | Current Version | Previous Version | Graphics & Text | Print | Product List | Glossary On
Versions: 1 2 3 4 5 6 7 8 9 10 11 12 13 14 15 16 17 18 19 20 21 22 23 24 25
000
FTUS43 KTOP 241000 AAC
TAFMHK
TAF AMD
KMHK 241048Z 2411/2506 13009KT 1/2SM FG VCSH BKN006
     FM241330 16009KT 6SM -SHRA BKN012
     FM241900 19011KT P6SM BKN035
      TEMPO 2421/2501 4SM -TSRA OVC015CB
     FM250200 15005KT P6SM BKN020=

USA.gov is the U.S. government's official web portal to all federal, state and local government web resources and services.